createdAt,value
2024-02-05T00:01:06.742Z,101909.63
2024-02-05T00:03:35.330Z,101930.47
2024-02-05T00:06:01.993Z,101933.75
2024-02-05T00:08:29.752Z,101889.09
2024-02-05T00:10:56.321Z,101925.03
2024-02-05T00:13:24.756Z,101931.00
2024-02-05T00:15:54.338Z,101935.31
2024-02-05T00:18:21.661Z,101925.97
2024-02-05T00:20:48.223Z,101912.69
2024-02-05T00:23:14.985Z,101943.03
2024-02-05T00:25:41.624Z,101917.66
2024-02-05T00:28:09.045Z,101918.25
2024-02-05T00:30:35.933Z,101915.59
2024-02-05T00:33:02.636Z,101914.78
2024-02-05T00:35:29.269Z,101935.94
2024-02-05T00:37:56.484Z,101926.09
2024-02-05T00:40:23.514Z,101954.75
2024-02-05T00:42:50.416Z,101941.94
2024-02-05T00:45:17.570Z,101931.53
2024-02-05T00:47:44.269Z,101945.31
2024-02-05T00:50:11.519Z,101926.25
2024-02-05T00:52:38.224Z,101938.22
2024-02-05T00:55:05.230Z,101932.28
2024-02-05T00:57:31.915Z,101911.31
2024-02-05T00:59:58.716Z,101892.22
2024-02-05T01:02:25.328Z,101941.75
2024-02-05T01:04:52.196Z,101914.00
2024-02-05T01:07:20.310Z,101905.19
2024-02-05T01:09:47.098Z,101932.63
2024-02-05T01:12:13.681Z,101932.91
2024-02-05T01:14:40.315Z,101933.81
2024-02-05T01:17:08.077Z,101919.72
2024-02-05T01:19:34.791Z,101934.25
2024-02-05T01:22:01.402Z,101899.50
2024-02-05T01:24:28.022Z,101916.09
2024-02-05T01:26:54.673Z,101910.59
2024-02-05T01:29:21.314Z,101918.34
2024-02-05T01:31:49.145Z,101931.47
2024-02-05T01:34:15.953Z,101918.38
2024-02-05T01:36:42.686Z,101896.63
2024-02-05T01:39:09.342Z,101924.47
2024-02-05T01:41:35.936Z,101929.72
2024-02-05T01:44:02.854Z,101930.91
2024-02-05T01:46:32.778Z,101927.28
2024-02-05T01:49:04.137Z,101929.13
2024-02-05T01:51:35.306Z,101844.31
2024-02-05T01:54:02.879Z,101882.78
2024-02-05T01:56:33.322Z,101908.50
2024-02-05T01:59:03.163Z,101906.41
2024-02-05T02:01:32.814Z,101926.13
2024-02-05T02:04:01.491Z,101900.25
2024-02-05T02:06:28.929Z,101880.25
2024-02-05T02:08:56.804Z,101911.47
2024-02-05T02:11:23.464Z,101894.63
2024-02-05T02:13:51.889Z,101877.31
2024-02-05T02:16:23.379Z,101885.06
2024-02-05T02:18:52.528Z,101903.31
2024-02-05T02:21:21.202Z,101901.78
2024-02-05T02:23:48.521Z,101868.66
2024-02-05T02:26:15.197Z,101895.69
2024-02-05T02:28:41.813Z,101856.22
2024-02-05T02:31:08.914Z,101896.28
2024-02-05T02:33:55.046Z,101869.41
2024-02-05T02:36:41.763Z,101899.47
2024-02-05T02:39:25.142Z,101855.00
2024-02-05T02:41:55.638Z,101898.41
2024-02-05T02:44:25.741Z,101892.47
2024-02-05T02:46:55.289Z,101892.41
2024-02-05T02:49:23.521Z,101894.16
2024-02-05T02:51:50.219Z,101912.22
2024-02-05T02:54:16.832Z,101879.81
2024-02-05T02:56:43.515Z,101882.28
2024-02-05T02:59:11.274Z,101890.22
2024-02-05T03:01:38.052Z,101871.84
2024-02-05T03:04:04.940Z,101889.25
2024-02-05T03:06:33.145Z,101883.25
2024-02-05T03:08:59.813Z,101902.38
2024-02-05T03:11:26.407Z,101890.84
2024-02-05T03:13:52.978Z,101898.75
2024-02-05T03:16:19.658Z,101889.97
2024-02-05T03:18:46.406Z,101888.25
2024-02-05T03:21:13.067Z,101892.63
2024-02-05T03:23:39.763Z,101890.72
2024-02-05T03:26:06.426Z,101892.69
2024-02-05T03:28:32.967Z,101897.81
2024-02-05T03:30:59.651Z,101909.25
2024-02-05T03:33:26.292Z,101886.47
2024-02-05T03:35:52.919Z,101909.78
2024-02-05T03:38:19.540Z,101901.13
2024-02-05T03:40:46.106Z,101916.75
2024-02-05T03:43:12.784Z,101912.50
2024-02-05T03:45:39.482Z,101900.41
2024-02-05T03:48:07.854Z,101899.38
2024-02-05T03:50:34.555Z,101907.34
2024-02-05T03:53:04.173Z,101921.19
2024-02-05T03:55:31.661Z,101914.31
2024-02-05T03:58:00.505Z,101918.81
2024-02-05T04:00:27.882Z,101928.97
2024-02-05T04:02:54.466Z,101926.41
2024-02-05T04:05:21.058Z,101916.78
2024-02-05T04:07:47.618Z,101899.28
2024-02-05T04:10:15.024Z,101926.47
2024-02-05T04:12:41.793Z,101918.06
2024-02-05T04:15:11.533Z,101914.44
2024-02-05T04:17:38.178Z,101898.69
2024-02-05T04:20:06.758Z,101899.50
2024-02-05T04:22:34.565Z,101906.00
2024-02-05T04:25:01.261Z,101880.75
2024-02-05T04:27:27.969Z,101897.25
2024-02-05T04:29:57.152Z,101865.88
2024-02-05T04:32:24.550Z,101899.56
2024-02-05T04:34:51.296Z,101905.69
2024-02-05T04:37:18.036Z,101905.44
2024-02-05T04:39:44.661Z,101898.38
2024-02-05T04:42:11.328Z,101920.94
2024-02-05T04:44:38.141Z,101891.63
2024-02-05T04:47:04.732Z,101913.25
2024-02-05T04:49:31.455Z,101904.38
2024-02-05T04:51:59.932Z,101924.31
2024-02-05T04:54:26.600Z,101892.44
2024-02-05T04:56:53.155Z,101887.56
2024-02-05T04:59:22.782Z,101892.50
2024-02-05T05:01:50.024Z,101904.38
2024-02-05T05:04:16.683Z,101913.13
2024-02-05T05:06:44.728Z,101892.50
2024-02-05T05:09:11.519Z,101883.66
2024-02-05T05:11:38.096Z,101868.09
2024-02-05T05:14:04.645Z,101890.13
2024-02-05T05:16:31.655Z,101886.47
2024-02-05T05:19:00.319Z,101887.41
2024-02-05T05:21:28.320Z,101893.53
2024-02-05T05:23:55.250Z,101902.88
2024-02-05T05:26:24.208Z,101890.66
2024-02-05T05:28:52.457Z,101895.88
2024-02-05T05:31:19.801Z,101906.22
2024-02-05T05:33:47.559Z,101876.66
2024-02-05T05:36:14.492Z,101881.81
2024-02-05T05:38:41.567Z,101913.69
2024-02-05T05:41:08.194Z,101881.59
2024-02-05T05:43:34.779Z,101888.47
2024-02-05T05:46:01.407Z,101892.88
2024-02-05T05:48:28.666Z,101887.53
2024-02-05T05:50:55.368Z,101900.66
2024-02-05T05:53:21.929Z,101871.19
2024-02-05T05:55:50.599Z,101891.84
2024-02-05T05:58:17.235Z,101890.09
2024-02-05T06:00:44.143Z,101879.59
2024-02-05T06:03:12.582Z,101920.53
2024-02-05T06:05:39.297Z,101907.56
2024-02-05T06:08:06.097Z,101889.47
2024-02-05T06:10:32.737Z,101893.69
2024-02-05T06:13:00.805Z,101891.84
2024-02-05T06:15:27.562Z,101896.19
2024-02-05T06:17:54.116Z,101796.78
2024-02-05T06:20:20.882Z,101899.81
2024-02-05T06:22:47.535Z,101893.63
2024-02-05T06:25:14.305Z,101898.84
2024-02-05T06:27:41.098Z,101869.09
2024-02-05T06:30:08.416Z,101872.72
2024-02-05T06:32:35.034Z,101888.66
2024-02-05T06:35:02.561Z,101897.00
2024-02-05T06:37:29.307Z,101872.53
2024-02-05T06:39:55.952Z,101905.81
2024-02-05T06:42:23.840Z,101888.00
2024-02-05T06:44:51.675Z,101871.47
2024-02-05T06:47:18.268Z,101867.09
2024-02-05T06:49:45.032Z,101888.22
2024-02-05T06:52:12.063Z,101879.19
2024-02-05T06:54:38.651Z,101910.38
2024-02-05T06:57:05.471Z,101893.78
2024-02-05T06:59:32.023Z,101882.69
2024-02-05T07:01:58.731Z,101881.06
2024-02-05T07:04:25.632Z,101901.16
2024-02-05T07:06:52.413Z,101900.16
2024-02-05T07:09:19.182Z,101888.88
2024-02-05T07:11:46.819Z,101900.09
2024-02-05T07:14:13.440Z,101887.31
2024-02-05T07:16:40.010Z,101869.81
2024-02-05T07:19:06.661Z,101888.00
2024-02-05T07:21:34.199Z,101879.97
2024-02-05T07:24:01.555Z,101877.56
2024-02-05T07:26:28.266Z,101900.91
2024-02-05T07:28:54.793Z,101905.84
2024-02-05T07:31:21.394Z,101895.81
2024-02-05T07:33:48.017Z,101899.97
2024-02-05T07:36:14.586Z,101909.63
2024-02-05T07:38:42.093Z,101880.00
2024-02-05T07:41:08.749Z,101905.41
2024-02-05T07:43:40.046Z,101899.13
2024-02-05T07:46:09.196Z,101877.47
2024-02-05T07:48:36.817Z,101867.78
2024-02-05T07:51:04.425Z,101893.16
2024-02-05T07:53:31.854Z,101897.59
2024-02-05T07:55:59.085Z,101897.53
2024-02-05T07:58:25.699Z,101888.88
2024-02-05T08:00:52.873Z,101873.31
2024-02-05T08:03:19.647Z,101890.41
2024-02-05T08:05:46.241Z,101897.53
2024-02-05T08:08:12.852Z,101889.81
2024-02-05T08:10:39.591Z,101883.75
2024-02-05T08:13:06.605Z,101857.88
2024-02-05T08:15:33.600Z,101888.16
2024-02-05T08:18:02.020Z,101889.03
2024-02-05T08:20:28.919Z,101874.31
2024-02-05T08:22:55.554Z,101847.25
2024-02-05T08:25:25.123Z,101863.50
2024-02-05T08:27:52.004Z,101899.34
2024-02-05T08:30:18.769Z,101876.66
2024-02-05T08:32:45.394Z,101852.41
2024-02-05T08:35:12.111Z,101896.91
2024-02-05T08:37:39.112Z,101903.91
2024-02-05T08:40:06.593Z,101895.38
2024-02-05T08:42:34.696Z,101886.69
2024-02-05T08:45:03.655Z,101894.41
2024-02-05T08:47:32.062Z,101903.25
2024-02-05T08:49:58.873Z,101901.34
2024-02-05T08:52:25.770Z,101897.09
2024-02-05T08:54:52.465Z,101880.44
2024-02-05T08:57:19.070Z,101901.66
2024-02-05T08:59:45.615Z,101913.00
2024-02-05T09:02:16.681Z,101914.66
2024-02-05T09:04:43.932Z,101914.13
2024-02-05T09:07:10.812Z,101910.72
2024-02-05T09:09:37.519Z,101902.97
2024-02-05T09:12:06.905Z,101904.97
2024-02-05T09:14:36.275Z,101912.88
2024-02-05T09:17:03.758Z,101920.00
2024-02-05T09:19:31.135Z,101934.56
2024-02-05T09:22:00.825Z,101931.06
2024-02-05T09:24:27.609Z,101935.97
2024-02-05T09:26:54.521Z,101922.56
2024-02-05T09:29:21.126Z,101934.69
2024-02-05T09:31:47.727Z,101913.84
2024-02-05T09:34:15.390Z,101933.91
2024-02-05T09:36:42.484Z,101921.69
2024-02-05T09:39:09.154Z,101915.56
2024-02-05T09:41:36.158Z,101923.28
2024-02-05T09:44:04.669Z,101910.38
2024-02-05T09:46:35.804Z,101917.28
2024-02-05T09:49:07.076Z,101903.66
2024-02-05T09:51:37.094Z,101919.13
2024-02-05T09:54:11.226Z,101895.81
2024-02-05T09:56:45.578Z,101892.78
2024-02-05T09:59:12.726Z,101898.91
2024-02-05T10:01:40.571Z,101912.81
2024-02-05T10:04:10.415Z,101907.56
2024-02-05T10:06:40.937Z,101898.03
2024-02-05T10:09:09.498Z,101899.75
2024-02-05T10:11:43.225Z,101886.47
2024-02-05T10:14:09.999Z,101897.19
2024-02-05T10:16:38.772Z,101886.19
2024-02-05T10:19:06.617Z,101906.19
2024-02-05T10:21:34.128Z,101853.22
2024-02-05T10:24:00.848Z,101855.66
2024-02-05T10:26:27.944Z,101899.03
2024-02-05T10:28:54.916Z,101892.94
2024-02-05T10:31:21.641Z,101871.25
2024-02-05T10:33:53.695Z,101897.25
2024-02-05T10:36:20.506Z,101881.63
2024-02-05T10:38:47.271Z,101893.03
2024-02-05T10:41:18.754Z,101885.28
2024-02-05T10:43:47.852Z,101863.47
2024-02-05T10:46:14.565Z,101887.63
2024-02-05T10:48:44.451Z,101891.97
2024-02-05T10:51:11.646Z,101889.03
2024-02-05T10:53:42.638Z,101850.91
2024-02-05T10:56:10.975Z,101847.41
2024-02-05T10:58:39.418Z,101893.56
2024-02-05T11:01:06.935Z,101849.97
2024-02-05T11:03:38.672Z,101872.34
2024-02-05T11:06:08.651Z,101882.91
2024-02-05T11:08:39.099Z,101873.00
2024-02-05T11:11:13.573Z,101860.56
2024-02-05T11:13:52.714Z,101870.44
2024-02-05T11:16:20.502Z,101880.69
2024-02-05T11:18:51.499Z,101870.44
2024-02-05T11:21:30.496Z,101857.59
2024-02-05T11:23:58.444Z,101859.63
2024-02-05T11:26:26.668Z,101863.03
2024-02-05T11:28:54.927Z,101867.44
2024-02-05T11:31:28.989Z,101867.19
2024-02-05T11:34:00.829Z,101866.28
2024-02-05T11:36:28.680Z,101826.66
2024-02-05T11:39:08.193Z,101832.22
2024-02-05T11:41:34.961Z,101842.34
2024-02-05T11:44:11.288Z,101839.84
2024-02-05T11:46:39.086Z,101804.97
2024-02-05T11:49:06.179Z,101844.09
2024-02-05T11:51:33.267Z,101829.66
2024-02-05T11:54:00.460Z,101809.84
2024-02-05T11:56:27.377Z,101815.63
2024-02-05T11:58:53.943Z,101833.28
2024-02-05T12:01:22.454Z,101822.75
2024-02-05T12:03:50.320Z,101817.50
2024-02-05T12:06:17.378Z,101815.47
2024-02-05T12:08:45.463Z,101820.72
2024-02-05T12:11:13.238Z,101824.03
2024-02-05T12:13:40.406Z,101808.34
2024-02-05T12:16:11.879Z,101796.00
2024-02-05T12:18:39.197Z,101780.78
2024-02-05T12:21:08.222Z,101792.91
2024-02-05T12:23:36.721Z,101759.59
2024-02-05T12:26:03.882Z,101767.56
2024-02-05T12:28:31.532Z,101779.97
2024-02-05T12:30:59.386Z,101756.41
2024-02-05T12:33:27.501Z,101754.78
2024-02-05T12:36:07.825Z,101768.13
2024-02-05T12:38:34.928Z,101776.00
2024-02-05T12:41:01.848Z,101734.44
2024-02-05T12:43:32.399Z,101784.25
2024-02-05T12:45:59.529Z,101765.34
2024-02-05T12:48:27.241Z,101765.53
2024-02-05T12:50:55.700Z,101786.47
2024-02-05T12:53:23.181Z,101758.22
2024-02-05T12:55:53.135Z,101757.88
2024-02-05T12:58:23.545Z,101768.94
2024-02-05T13:00:50.602Z,101762.94
2024-02-05T13:03:19.195Z,101730.44
2024-02-05T13:05:45.957Z,101772.44
2024-02-05T13:08:14.863Z,101751.97
2024-02-05T13:10:46.437Z,101745.06
2024-02-05T13:13:14.056Z,101726.72
2024-02-05T13:15:44.506Z,101751.09
2024-02-05T13:18:12.722Z,101751.13
2024-02-05T13:20:41.183Z,101734.81
2024-02-05T13:26:49.500Z,101749.22
2024-02-05T13:29:19.706Z,101736.41
2024-02-05T13:31:46.600Z,101725.59
2024-02-05T13:34:21.425Z,101727.44
2024-02-05T13:36:48.672Z,101737.09
2024-02-05T13:39:16.335Z,101744.72
2024-02-05T13:41:43.764Z,101724.63
2024-02-05T13:44:10.754Z,101733.34
2024-02-05T13:46:37.941Z,101721.88
2024-02-05T13:49:05.029Z,101745.44
2024-02-05T13:51:31.920Z,101734.97
2024-02-05T13:53:58.512Z,101716.56
2024-02-05T13:56:25.857Z,101714.16
2024-02-05T13:58:52.484Z,101730.69
2024-02-05T14:01:20.941Z,101675.84
2024-02-05T14:03:48.761Z,101695.91
2024-02-05T14:06:17.942Z,101709.97
2024-02-05T14:08:44.616Z,101700.50
2024-02-05T14:11:11.222Z,101690.19
2024-02-05T14:13:37.776Z,101602.00
2024-02-05T14:16:04.811Z,101714.28
2024-02-05T14:18:31.852Z,101674.19
2024-02-05T14:20:58.482Z,101691.69
2024-02-05T14:23:25.134Z,101691.84
2024-02-05T14:25:51.739Z,101709.78
2024-02-05T14:28:18.487Z,101672.56
2024-02-05T14:30:45.453Z,101699.41
2024-02-05T14:33:12.257Z,101682.44
2024-02-05T14:35:38.937Z,101686.50
2024-02-05T14:38:05.501Z,101700.47
2024-02-05T14:40:33.422Z,101696.88
2024-02-05T14:43:00.166Z,101694.25
2024-02-05T14:45:26.777Z,101711.59
2024-02-05T14:47:56.162Z,101686.25
2024-02-05T14:50:23.015Z,101703.53
2024-02-05T14:52:52.440Z,101700.09
2024-02-05T14:55:19.466Z,101714.09
2024-02-05T14:57:47.144Z,101708.00
2024-02-05T15:00:15.217Z,101692.91
2024-02-05T15:02:42.114Z,101693.06
2024-02-05T15:05:13.194Z,101697.75
2024-02-05T15:07:40.802Z,101708.91
2024-02-05T15:10:12.308Z,101723.53
2024-02-05T15:12:40.564Z,101670.00
2024-02-05T15:15:09.459Z,101671.84
2024-02-05T15:17:36.478Z,101695.22
2024-02-05T15:20:04.440Z,101643.13
2024-02-05T15:22:31.172Z,101684.06
2024-02-05T15:24:57.992Z,101658.97
2024-02-05T15:27:24.614Z,101671.94
2024-02-05T15:29:51.322Z,101659.28
2024-02-05T15:32:17.995Z,101677.22
2024-02-05T15:34:50.057Z,101658.97
2024-02-05T15:37:17.105Z,101640.72
2024-02-05T15:39:45.483Z,101634.66
2024-02-05T15:42:12.176Z,101659.06
2024-02-05T15:44:38.811Z,101644.28
2024-02-05T15:47:06.117Z,101667.69
2024-02-05T15:49:32.961Z,101648.56
2024-02-05T15:51:59.732Z,101656.38
2024-02-05T15:54:26.366Z,101632.78
2024-02-05T15:56:52.929Z,101650.13
2024-02-05T15:59:20.409Z,101668.41
2024-02-05T16:01:47.947Z,101645.81
2024-02-05T16:04:14.952Z,101646.63
2024-02-05T16:06:41.675Z,101663.91
2024-02-05T16:09:09.442Z,101647.47
2024-02-05T16:11:36.141Z,101671.84
2024-02-05T16:14:03.160Z,101669.19
2024-02-05T16:16:30.062Z,101663.91
2024-02-05T16:19:00.658Z,101663.72
2024-02-05T16:21:28.004Z,101692.31
2024-02-05T16:23:54.644Z,101660.22
2024-02-05T16:26:21.294Z,101650.63
2024-02-05T16:28:47.894Z,101676.00
2024-02-05T16:31:17.596Z,101651.75
2024-02-05T16:33:45.972Z,101641.53
2024-02-05T16:36:18.676Z,101660.84
2024-02-05T16:38:47.672Z,101608.44
2024-02-05T16:41:14.560Z,101684.88
2024-02-05T16:43:41.396Z,101584.63
2024-02-05T16:46:09.898Z,101641.84
2024-02-05T16:48:37.289Z,101660.19
2024-02-05T16:51:04.265Z,101650.69
2024-02-05T16:53:31.261Z,101645.75
2024-02-05T16:55:58.149Z,101587.53
2024-02-05T16:58:25.473Z,101601.34
2024-02-05T17:00:52.423Z,101594.69
2024-02-05T17:03:19.106Z,101610.34
2024-02-05T17:05:45.778Z,101617.22
2024-02-05T17:08:13.262Z,101601.50
2024-02-05T17:10:40.133Z,101640.38
2024-02-05T17:13:07.626Z,101630.09
2024-02-05T17:15:35.124Z,101625.53
2024-02-05T17:18:03.608Z,101639.09
2024-02-05T17:20:30.731Z,101627.81
2024-02-05T17:22:57.444Z,101611.38
2024-02-05T17:25:24.152Z,101627.97
2024-02-05T17:27:50.793Z,101599.06
2024-02-05T17:30:17.498Z,101633.66
2024-02-05T17:32:44.159Z,101627.56
2024-02-05T17:35:11.491Z,101623.81
2024-02-05T17:37:38.291Z,101641.03
2024-02-05T17:40:05.502Z,101637.53
2024-02-05T17:42:32.124Z,101617.72
2024-02-05T17:44:58.683Z,101624.44
2024-02-05T17:47:25.361Z,101601.22
2024-02-05T17:49:52.936Z,101638.22
2024-02-05T17:52:19.724Z,101600.69
2024-02-05T17:54:46.590Z,101603.63
2024-02-05T17:57:13.679Z,101587.94
2024-02-05T17:59:40.286Z,101624.25
2024-02-05T18:02:07.141Z,101623.75
2024-02-05T18:04:33.964Z,101614.09
2024-02-05T18:07:01.404Z,101606.38
2024-02-05T18:09:28.502Z,101615.00
2024-02-05T18:11:55.203Z,101589.88
2024-02-05T18:14:21.805Z,101610.88
2024-02-05T18:16:48.445Z,101602.38
2024-02-05T18:19:15.130Z,101588.31
2024-02-05T18:21:41.939Z,101579.69
2024-02-05T18:24:08.638Z,101576.06
2024-02-05T18:26:35.235Z,101602.47
2024-02-05T18:29:04.277Z,101585.09
2024-02-05T18:31:31.008Z,101570.13
2024-02-05T18:33:57.908Z,101595.50
2024-02-05T18:36:24.748Z,101574.69
2024-02-05T18:38:51.335Z,101592.88
2024-02-05T18:41:18.022Z,101572.31
2024-02-05T18:43:44.716Z,101580.03
2024-02-05T18:46:11.318Z,101575.50
2024-02-05T18:48:38.091Z,101563.44
2024-02-05T18:51:04.884Z,101600.06
2024-02-05T18:53:34.263Z,101580.72
2024-02-05T18:56:02.119Z,101577.28
2024-02-05T18:58:28.854Z,101579.91
2024-02-05T19:00:55.577Z,101579.91
2024-02-05T19:03:22.277Z,101576.69
2024-02-05T19:05:48.994Z,101556.81
2024-02-05T19:08:15.741Z,101556.84
2024-02-05T19:10:42.852Z,101571.38
2024-02-05T19:13:09.558Z,101560.06
2024-02-05T19:15:36.267Z,101552.38
2024-02-05T19:18:03.079Z,101569.03
2024-02-05T19:20:29.930Z,101549.84
2024-02-05T19:22:56.554Z,101542.06
2024-02-05T19:25:23.314Z,101566.47
2024-02-05T19:27:50.159Z,101556.03
2024-02-05T19:30:19.963Z,101551.69
2024-02-05T19:32:46.990Z,101518.66
2024-02-05T19:35:13.824Z,101543.09
2024-02-05T19:37:40.989Z,101554.38
2024-02-05T19:40:08.408Z,101548.50
2024-02-05T19:42:35.075Z,101550.25
2024-02-05T19:45:01.693Z,101546.78
2024-02-05T19:47:28.320Z,101531.13
2024-02-05T19:49:55.100Z,101540.66
2024-02-05T19:52:22.622Z,101535.59
2024-02-05T19:54:49.354Z,101519.81
2024-02-05T19:57:16.022Z,101531.34
2024-02-05T19:59:43.183Z,101499.34
2024-02-05T20:02:10.026Z,101490.72
2024-02-05T20:04:36.885Z,101520.19
2024-02-05T20:07:07.348Z,101515.91
2024-02-05T20:09:35.883Z,101504.59
2024-02-05T20:12:05.508Z,101526.19
2024-02-05T20:14:34.167Z,101517.66
2024-02-05T20:17:02.719Z,101494.41
2024-02-05T20:19:29.549Z,101478.75
2024-02-05T20:21:56.183Z,101482.28
2024-02-05T20:24:22.831Z,101494.41
2024-02-05T20:26:49.585Z,101488.44
2024-02-05T20:29:16.231Z,101486.59
2024-02-05T20:31:42.952Z,101470.88
2024-02-05T20:34:09.715Z,101484.09
2024-02-05T20:36:36.380Z,101455.34
2024-02-05T20:39:04.261Z,101489.34
2024-02-05T20:41:30.856Z,101472.91
2024-02-05T20:43:57.529Z,101469.31
2024-02-05T20:46:24.263Z,101478.06
2024-02-05T20:48:51.234Z,101445.16
2024-02-05T20:51:17.943Z,101444.16
2024-02-05T20:53:44.860Z,101469.78
2024-02-05T20:56:11.544Z,101459.38
2024-02-05T20:58:38.208Z,101457.56
2024-02-05T21:01:05.220Z,101459.38
2024-02-05T21:03:36.821Z,101456.09
2024-02-05T21:06:04.061Z,101451.84
2024-02-05T21:08:33.921Z,101462.06
2024-02-05T21:11:01.742Z,101426.50
2024-02-05T21:13:30.391Z,101441.38
2024-02-05T21:15:57.003Z,101454.53
2024-02-05T21:18:23.670Z,101454.44
2024-02-05T21:20:50.286Z,101434.53
2024-02-05T21:23:16.995Z,101410.28
2024-02-05T21:25:43.996Z,101429.34
2024-02-05T21:28:10.809Z,101431.13
2024-02-05T21:30:40.132Z,101459.66
2024-02-05T21:33:08.606Z,101434.44
2024-02-05T21:35:35.237Z,101465.78
2024-02-05T21:38:01.904Z,101452.75
2024-02-05T21:40:28.653Z,101463.19
2024-02-05T21:42:55.354Z,101433.66
2024-02-05T21:45:21.952Z,101437.88
2024-02-05T21:47:48.609Z,101454.34
2024-02-05T21:50:15.719Z,101455.25
2024-02-05T21:52:42.457Z,101449.19
2024-02-05T21:55:09.757Z,101444.13
2024-02-05T21:57:36.458Z,101438.03
2024-02-05T22:00:03.892Z,101438.06
2024-02-05T22:02:30.513Z,101460.41
2024-02-05T22:04:57.384Z,101450.94
2024-02-05T22:07:24.150Z,101437.19
2024-02-05T22:09:50.953Z,101440.47
2024-02-05T22:12:17.568Z,101443.16
2024-02-05T22:14:44.141Z,101424.06
2024-02-05T22:17:10.748Z,101422.41
2024-02-05T22:19:37.460Z,101432.94
2024-02-05T22:22:04.534Z,101399.03
2024-02-05T22:24:31.138Z,101420.88
2024-02-05T22:26:57.927Z,101415.69
2024-02-05T22:29:24.542Z,101413.09
2024-02-05T22:31:52.024Z,101386.41
2024-02-05T22:34:28.027Z,101409.66
2024-02-05T22:36:58.811Z,101394.16
2024-02-05T22:39:25.419Z,101398.63
2024-02-05T22:41:52.030Z,101394.38
2024-02-05T22:44:19.686Z,101394.47
2024-02-05T22:46:46.288Z,101389.31
2024-02-05T22:49:13.134Z,101387.81
2024-02-05T22:51:39.936Z,101395.41
2024-02-05T22:54:06.816Z,101398.84
2024-02-05T22:56:33.602Z,101395.47
2024-02-05T22:59:00.225Z,101382.41
2024-02-05T23:01:30.335Z,101370.41
2024-02-05T23:03:58.782Z,101354.91
2024-02-05T23:06:28.872Z,101365.16
2024-02-05T23:08:56.390Z,101365.16
2024-02-05T23:11:23.843Z,101370.41
2024-02-05T23:13:51.037Z,101364.34
2024-02-05T23:16:17.853Z,101379.31
2024-02-05T23:18:44.540Z,101367.94
2024-02-05T23:21:11.194Z,101367.13
2024-02-05T23:23:38.458Z,101367.22
2024-02-05T23:26:05.271Z,101338.53
2024-02-05T23:28:32.228Z,101378.41
2024-02-05T23:30:59.141Z,101359.25
2024-02-05T23:33:26.125Z,101358.56
2024-02-05T23:35:52.877Z,101362.78
2024-02-05T23:38:19.545Z,101375.84
2024-02-05T23:40:47.192Z,101374.16
2024-02-05T23:43:14.818Z,101363.75
2024-02-05T23:45:43.510Z,101359.41
2024-02-05T23:48:10.228Z,101365.63
2024-02-05T23:50:37.155Z,101300.69
2024-02-05T23:53:04.040Z,101350.88
2024-02-05T23:55:30.878Z,101352.69
2024-02-05T23:57:57.674Z,101359.59
